Gulf Islands Natl Seashore, Florida
Current Conditions -  °F | °C
As of 4:26 AM on Monday 22 Dec 2014 (Local Time) from KPNS Reporting Station
Haze Haze  
Wind Chill: 52°   Ceiling: 200
Heat Index: 52°   Visibility: 3mi
Dew Point: 52°   Wind: 6mph
Humidity: 100%   Direction: 80°E
Pressure: 29.93"   Gusts: NA
Location:  30.33°N, 87.25°W
Report Text: KPNS 221026Z AUTO 08005KT 3SM BR OVC002 11/11 A2993 RMK AO2 RAE15 P0000 T01110111
Loading
Personal Weather Stations






























Interactive Weather Map New forecast layout! Learn more

10-Day Weather Forecast

Advertisements
Track Severe Weather on mobile